sensor_id;sensor_type;location;lat;lon;timestamp;temperature;humidity
20654;DHT22;21083;50.898;4.902;2023-12-20T00:01:15;6.80;99.90
20654;DHT22;21083;50.898;4.902;2023-12-20T00:03:43;6.70;99.90
20654;DHT22;21083;50.898;4.902;2023-12-20T00:06:10;6.60;99.90
20654;DHT22;21083;50.898;4.902;2023-12-20T00:08:37;6.60;99.90
20654;DHT22;21083;50.898;4.902;2023-12-20T00:11:05;6.60;99.90
20654;DHT22;21083;50.898;4.902;2023-12-20T00:13:32;6.50;99.90
20654;DHT22;21083;50.898;4.902;2023-12-20T00:15:59;6.50;99.90
20654;DHT22;21083;50.898;4.902;2023-12-20T00:18:26;6.40;99.90
20654;DHT22;21083;50.898;4.902;2023-12-20T00:20:54;6.50;99.90
20654;DHT22;21083;50.898;4.902;2023-12-20T00:23:21;6.50;99.90
20654;DHT22;21083;50.898;4.902;2023-12-20T00:25:48;6.50;99.90
20654;DHT22;21083;50.898;4.902;2023-12-20T00:28:16;6.50;99.90
20654;DHT22;21083;50.898;4.902;2023-12-20T00:30:42;6.50;99.90
20654;DHT22;21083;50.898;4.902;2023-12-20T00:33:10;6.50;99.90
20654;DHT22;21083;50.898;4.902;2023-12-20T00:35:36;6.50;99.90
20654;DHT22;21083;50.898;4.902;2023-12-20T00:38:05;6.50;99.90
20654;DHT22;21083;50.898;4.902;2023-12-20T00:40:32;6.60;99.90
20654;DHT22;21083;50.898;4.902;2023-12-20T00:42:59;6.60;99.90
20654;DHT22;21083;50.898;4.902;2023-12-20T00:45:26;6.60;99.90
20654;DHT22;21083;50.898;4.902;2023-12-20T00:47:53;6.60;99.90
20654;DHT22;21083;50.898;4.902;2023-12-20T00:50:20;6.60;99.90
20654;DHT22;21083;50.898;4.902;2023-12-20T00:52:47;6.60;99.90
20654;DHT22;21083;50.898;4.902;2023-12-20T00:55:16;6.60;99.90
20654;DHT22;21083;50.898;4.902;2023-12-20T00:57:43;6.50;99.90
20654;DHT22;21083;50.898;4.902;2023-12-20T01:00:11;6.60;99.90
20654;DHT22;21083;50.898;4.902;2023-12-20T01:02:39;6.70;99.90
20654;DHT22;21083;50.898;4.902;2023-12-20T01:05:12;6.50;99.90
20654;DHT22;21083;50.898;4.902;2023-12-20T01:07:39;6.60;99.90
20654;DHT22;21083;50.898;4.902;2023-12-20T01:10:06;6.60;99.90
20654;DHT22;21083;50.898;4.902;2023-12-20T01:12:36;6.50;99.90
20654;DHT22;21083;50.898;4.902;2023-12-20T01:15:04;6.40;99.90
20654;DHT22;21083;50.898;4.902;2023-12-20T01:17:31;6.40;99.90
20654;DHT22;21083;50.898;4.902;2023-12-20T01:19:58;6.50;99.90
20654;DHT22;21083;50.898;4.902;2023-12-20T01:22:25;6.50;99.90
20654;DHT22;21083;50.898;4.902;2023-12-20T01:24:52;6.30;99.90
20654;DHT22;21083;50.898;4.902;2023-12-20T01:27:18;6.30;99.90
20654;DHT22;21083;50.898;4.902;2023-12-20T01:29:47;6.30;99.90
20654;DHT22;21083;50.898;4.902;2023-12-20T01:32:14;6.40;99.90
20654;DHT22;21083;50.898;4.902;2023-12-20T01:34:41;6.40;99.90
20654;DHT22;21083;50.898;4.902;2023-12-20T01:37:08;6.50;99.90
20654;DHT22;21083;50.898;4.902;2023-12-20T01:39:35;6.30;99.90
20654;DHT22;21083;50.898;4.902;2023-12-20T01:42:02;6.20;99.90
20654;DHT22;21083;50.898;4.902;2023-12-20T01:44:29;6.30;99.90
20654;DHT22;21083;50.898;4.902;2023-12-20T01:46:57;6.10;99.90
20654;DHT22;21083;50.898;4.902;2023-12-20T01:49:24;6.20;99.90
20654;DHT22;21083;50.898;4.902;2023-12-20T01:51:52;6.20;99.90
20654;DHT22;21083;50.898;4.902;2023-12-20T01:54:19;6.20;99.90
20654;DHT22;21083;50.898;4.902;2023-12-20T01:56:49;6.20;99.90
20654;DHT22;21083;50.898;4.902;2023-12-20T01:59:18;6.30;99.90
20654;DHT22;21083;50.898;4.902;2023-12-20T02:01:45;6.20;99.90
20654;DHT22;21083;50.898;4.902;2023-12-20T02:04:14;6.20;99.90
20654;DHT22;21083;50.898;4.902;2023-12-20T02:06:42;6.10;99.90
20654;DHT22;21083;50.898;4.902;2023-12-20T02:09:10;6.20;99.90
20654;DHT22;21083;50.898;4.902;2023-12-20T02:11:38;6.10;99.90
20654;DHT22;21083;50.898;4.902;2023-12-20T02:14:05;6.10;99.90
20654;DHT22;21083;50.898;4.902;2023-12-20T02:16:32;6.20;99.90
20654;DHT22;21083;50.898;4.902;2023-12-20T02:18:59;6.30;99.90
20654;DHT22;21083;50.898;4.902;2023-12-20T02:21:33;6.20;99.90
20654;DHT22;21083;50.898;4.902;2023-12-20T02:24:00;6.20;99.90
20654;DHT22;21083;50.898;4.902;2023-12-20T02:26:27;6.10;99.90
20654;DHT22;21083;50.898;4.902;2023-12-20T02:28:55;6.10;99.90
20654;DHT22;21083;50.898;4.902;2023-12-20T02:31:22;6.10;99.90
20654;DHT22;21083;50.898;4.902;2023-12-20T02:33:49;6.00;99.90
20654;DHT22;21083;50.898;4.902;2023-12-20T02:36:16;6.20;99.90
20654;DHT22;21083;50.898;4.902;2023-12-20T02:38:45;6.30;99.90
20654;DHT22;21083;50.898;4.902;2023-12-20T02:41:12;6.20;99.90
20654;DHT22;21083;50.898;4.902;2023-12-20T02:43:41;6.10;99.90
20654;DHT22;21083;50.898;4.902;2023-12-20T02:46:08;6.20;99.90
20654;DHT22;21083;50.898;4.902;2023-12-20T02:48:35;6.10;99.90
20654;DHT22;21083;50.898;4.902;2023-12-20T02:51:02;6.30;99.90
20654;DHT22;21083;50.898;4.902;2023-12-20T02:53:29;6.30;99.90
20654;DHT22;21083;50.898;4.902;2023-12-20T02:55:58;6.20;99.90
20654;DHT22;21083;50.898;4.902;2023-12-20T02:58:25;6.40;99.90
20654;DHT22;21083;50.898;4.902;2023-12-20T03:00:51;6.50;99.90
20654;DHT22;21083;50.898;4.902;2023-12-20T03:03:18;6.50;99.90
20654;DHT22;21083;50.898;4.902;2023-12-20T03:05:45;6.40;99.90
20654;DHT22;21083;50.898;4.902;2023-12-20T03:08:13;6.40;99.90
20654;DHT22;21083;50.898;4.902;2023-12-20T03:10:40;6.50;99.90
20654;DHT22;21083;50.898;4.902;2023-12-20T03:13:08;6.50;99.90
20654;DHT22;21083;50.898;4.902;2023-12-20T03:15:35;6.50;99.90
20654;DHT22;21083;50.898;4.902;2023-12-20T03:18:03;6.50;99.90
20654;DHT22;21083;50.898;4.902;2023-12-20T03:20:30;6.60;99.90
20654;DHT22;21083;50.898;4.902;2023-12-20T03:22:59;6.60;99.90
20654;DHT22;21083;50.898;4.902;2023-12-20T03:25:26;6.50;99.90
20654;DHT22;21083;50.898;4.902;2023-12-20T03:27:53;6.50;99.90
20654;DHT22;21083;50.898;4.902;2023-12-20T03:30:22;6.60;99.90
20654;DHT22;21083;50.898;4.902;2023-12-20T03:32:49;6.60;99.90
20654;DHT22;21083;50.898;4.902;2023-12-20T03:35:16;6.40;99.90
20654;DHT22;21083;50.898;4.902;2023-12-20T03:37:43;6.40;99.90
20654;DHT22;21083;50.898;4.902;2023-12-20T03:40:10;6.30;99.90
20654;DHT22;21083;50.898;4.902;2023-12-20T03:42:37;6.40;99.90
20654;DHT22;21083;50.898;4.902;2023-12-20T03:45:05;6.40;99.90
20654;DHT22;21083;50.898;4.902;2023-12-20T03:47:33;6.40;99.90
20654;DHT22;21083;50.898;4.902;2023-12-20T03:50:00;6.40;99.90
20654;DHT22;21083;50.898;4.902;2023-12-20T03:52:27;6.40;99.90
20654;DHT22;21083;50.898;4.902;2023-12-20T03:54:54;6.40;99.90
20654;DHT22;21083;50.898;4.902;2023-12-20T03:57:21;6.40;99.90
20654;DHT22;21083;50.898;4.902;2023-12-20T03:59:49;6.50;99.90
20654;DHT22;21083;50.898;4.902;2023-12-20T04:02:16;6.50;99.90
20654;DHT22;21083;50.898;4.902;2023-12-20T04:04:45;6.50;99.90
20654;DHT22;21083;50.898;4.902;2023-12-20T04:07:12;6.60;99.90
20654;DHT22;21083;50.898;4.902;2023-12-20T04:09:40;6.50;99.90
20654;DHT22;21083;50.898;4.902;2023-12-20T04:12:07;6.40;99.90
20654;DHT22;21083;50.898;4.902;2023-12-20T04:14:34;6.40;99.90
20654;DHT22;21083;50.898;4.902;2023-12-20T04:17:01;6.30;99.90
20654;DHT22;21083;50.898;4.902;2023-12-20T04:19:28;6.40;99.90
20654;DHT22;21083;50.898;4.902;2023-12-20T04:21:56;6.30;99.90
20654;DHT22;21083;50.898;4.902;2023-12-20T04:24:23;6.30;99.90
20654;DHT22;21083;50.898;4.902;2023-12-20T04:26:50;6.30;99.90
20654;DHT22;21083;50.898;4.902;2023-12-20T04:29:17;6.30;99.90
20654;DHT22;21083;50.898;4.902;2023-12-20T04:31:44;6.30;99.90
20654;DHT22;21083;50.898;4.902;2023-12-20T04:34:11;6.30;99.90
20654;DHT22;21083;50.898;4.902;2023-12-20T04:36:38;6.20;99.90
20654;DHT22;21083;50.898;4.902;2023-12-20T04:39:06;6.20;99.90
20654;DHT22;21083;50.898;4.902;2023-12-20T04:41:33;6.20;99.90
20654;DHT22;21083;50.898;4.902;2023-12-20T04:44:00;6.10;99.90
20654;DHT22;21083;50.898;4.902;2023-12-20T04:46:29;6.20;99.90
20654;DHT22;21083;50.898;4.902;2023-12-20T04:48:55;6.20;99.90
20654;DHT22;21083;50.898;4.902;2023-12-20T04:51:23;6.30;99.90
20654;DHT22;21083;50.898;4.902;2023-12-20T04:53:50;6.30;99.90
20654;DHT22;21083;50.898;4.902;2023-12-20T04:56:18;6.40;99.90
20654;DHT22;21083;50.898;4.902;2023-12-20T04:58:45;6.50;99.90
20654;DHT22;21083;50.898;4.902;2023-12-20T05:01:13;6.50;99.90
20654;DHT22;21083;50.898;4.902;2023-12-20T05:03:40;6.40;99.90
20654;DHT22;21083;50.898;4.902;2023-12-20T05:06:07;6.40;99.90
20654;DHT22;21083;50.898;4.902;2023-12-20T05:08:34;6.30;99.90
20654;DHT22;21083;50.898;4.902;2023-12-20T05:11:01;6.30;99.90
20654;DHT22;21083;50.898;4.902;2023-12-20T05:13:29;6.40;99.90
20654;DHT22;21083;50.898;4.902;2023-12-20T05:15:56;6.30;99.90
20654;DHT22;21083;50.898;4.902;2023-12-20T05:18:23;6.30;99.90
20654;DHT22;21083;50.898;4.902;2023-12-20T05:20:50;6.30;99.90
20654;DHT22;21083;50.898;4.902;2023-12-20T05:23:18;6.30;99.90
20654;DHT22;21083;50.898;4.902;2023-12-20T05:25:46;6.30;99.90
20654;DHT22;21083;50.898;4.902;2023-12-20T05:28:13;6.30;99.90
20654;DHT22;21083;50.898;4.902;2023-12-20T05:30:41;6.30;99.90
20654;DHT22;21083;50.898;4.902;2023-12-20T05:33:08;6.40;99.90
20654;DHT22;21083;50.898;4.902;2023-12-20T05:35:36;6.40;99.90
20654;DHT22;21083;50.898;4.902;2023-12-20T05:38:03;6.30;99.90
20654;DHT22;21083;50.898;4.902;2023-12-20T05:40:30;6.20;99.90
20654;DHT22;21083;50.898;4.902;2023-12-20T05:42:57;6.20;99.90
20654;DHT22;21083;50.898;4.902;2023-12-20T05:45:24;6.20;99.90
20654;DHT22;21083;50.898;4.902;2023-12-20T05:47:52;6.20;99.90
20654;DHT22;21083;50.898;4.902;2023-12-20T05:50:19;6.30;99.90
20654;DHT22;21083;50.898;4.902;2023-12-20T05:52:46;6.20;99.90
20654;DHT22;21083;50.898;4.902;2023-12-20T05:55:13;6.20;99.90
20654;DHT22;21083;50.898;4.902;2023-12-20T05:57:40;6.10;99.90
20654;DHT22;21083;50.898;4.902;2023-12-20T06:00:09;6.20;99.90
20654;DHT22;21083;50.898;4.902;2023-12-20T06:02:37;6.10;99.90
20654;DHT22;21083;50.898;4.902;2023-12-20T06:05:06;6.00;99.90
20654;DHT22;21083;50.898;4.902;2023-12-20T06:07:33;5.90;99.90
20654;DHT22;21083;50.898;4.902;2023-12-20T06:10:00;6.00;99.90
20654;DHT22;21083;50.898;4.902;2023-12-20T06:12:27;6.00;99.90
20654;DHT22;21083;50.898;4.902;2023-12-20T06:14:54;6.00;99.90
20654;DHT22;21083;50.898;4.902;2023-12-20T06:17:23;5.90;99.90
20654;DHT22;21083;50.898;4.902;2023-12-20T06:19:50;5.90;99.90
20654;DHT22;21083;50.898;4.902;2023-12-20T06:22:18;6.00;99.90
20654;DHT22;21083;50.898;4.902;2023-12-20T06:24:45;6.00;99.90
20654;DHT22;21083;50.898;4.902;2023-12-20T06:27:12;5.90;99.90
20654;DHT22;21083;50.898;4.902;2023-12-20T06:29:40;5.80;99.90
20654;DHT22;21083;50.898;4.902;2023-12-20T06:32:08;6.00;99.90
20654;DHT22;21083;50.898;4.902;2023-12-20T06:34:35;5.90;99.90
20654;DHT22;21083;50.898;4.902;2023-12-20T06:37:03;6.00;99.90
20654;DHT22;21083;50.898;4.902;2023-12-20T06:39:32;6.00;99.90
20654;DHT22;21083;50.898;4.902;2023-12-20T06:41:59;6.00;99.90
20654;DHT22;21083;50.898;4.902;2023-12-20T06:44:26;6.00;99.90
20654;DHT22;21083;50.898;4.902;2023-12-20T06:46:53;6.10;99.90
20654;DHT22;21083;50.898;4.902;2023-12-20T06:49:20;6.20;99.90
20654;DHT22;21083;50.898;4.902;2023-12-20T06:51:47;6.20;99.90
20654;DHT22;21083;50.898;4.902;2023-12-20T06:54:14;6.10;99.90
20654;DHT22;21083;50.898;4.902;2023-12-20T06:56:42;6.10;99.90
20654;DHT22;21083;50.898;4.902;2023-12-20T06:59:09;6.00;99.90
20654;DHT22;21083;50.898;4.902;2023-12-20T07:01:36;6.10;99.90
20654;DHT22;21083;50.898;4.902;2023-12-20T07:04:03;6.10;99.90
20654;DHT22;21083;50.898;4.902;2023-12-20T07:06:30;6.10;99.90
20654;DHT22;21083;50.898;4.902;2023-12-20T07:08:57;6.10;99.90
20654;DHT22;21083;50.898;4.902;2023-12-20T07:11:24;6.10;99.90
20654;DHT22;21083;50.898;4.902;2023-12-20T07:13:53;6.00;99.90
20654;DHT22;21083;50.898;4.902;2023-12-20T07:16:20;6.10;99.90
20654;DHT22;21083;50.898;4.902;2023-12-20T07:18:48;6.00;99.90
20654;DHT22;21083;50.898;4.902;2023-12-20T07:21:15;6.00;99.90
20654;DHT22;21083;50.898;4.902;2023-12-20T07:23:42;6.10;99.90
20654;DHT22;21083;50.898;4.902;2023-12-20T07:26:09;6.00;99.90
20654;DHT22;21083;50.898;4.902;2023-12-20T07:28:36;6.00;99.90
20654;DHT22;21083;50.898;4.902;2023-12-20T07:31:05;6.00;99.90
20654;DHT22;21083;50.898;4.902;2023-12-20T07:33:32;5.90;99.90
20654;DHT22;21083;50.898;4.902;2023-12-20T07:35:59;6.00;99.90
20654;DHT22;21083;50.898;4.902;2023-12-20T07:38:26;6.00;99.90
20654;DHT22;21083;50.898;4.902;2023-12-20T07:40:53;6.10;99.90
20654;DHT22;21083;50.898;4.902;2023-12-20T07:43:20;6.00;99.90
20654;DHT22;21083;50.898;4.902;2023-12-20T07:45:48;5.90;99.90
20654;DHT22;21083;50.898;4.902;2023-12-20T07:48:17;5.80;99.90
20654;DHT22;21083;50.898;4.902;2023-12-20T07:50:43;5.90;99.90
20654;DHT22;21083;50.898;4.902;2023-12-20T07:53:10;5.90;99.90
20654;DHT22;21083;50.898;4.902;2023-12-20T07:55:38;5.90;99.90
20654;DHT22;21083;50.898;4.902;2023-12-20T07:58:06;5.90;99.90
20654;DHT22;21083;50.898;4.902;2023-12-20T08:00:33;5.90;99.90
20654;DHT22;21083;50.898;4.902;2023-12-20T08:03:00;5.90;99.90
20654;DHT22;21083;50.898;4.902;2023-12-20T08:05:30;5.90;99.90
20654;DHT22;21083;50.898;4.902;2023-12-20T08:07:57;6.00;99.90
20654;DHT22;21083;50.898;4.902;2023-12-20T08:10:24;5.90;99.90
20654;DHT22;21083;50.898;4.902;2023-12-20T08:12:51;5.90;99.90
20654;DHT22;21083;50.898;4.902;2023-12-20T08:15:18;6.00;99.90
20654;DHT22;21083;50.898;4.902;2023-12-20T08:17:45;5.90;99.90
20654;DHT22;21083;50.898;4.902;2023-12-20T08:20:12;5.80;99.90
20654;DHT22;21083;50.898;4.902;2023-12-20T08:22:40;5.80;99.90
20654;DHT22;21083;50.898;4.902;2023-12-20T08:25:07;5.80;99.90
20654;DHT22;21083;50.898;4.902;2023-12-20T08:27:39;5.80;99.90
20654;DHT22;21083;50.898;4.902;2023-12-20T08:30:08;5.80;99.90
20654;DHT22;21083;50.898;4.902;2023-12-20T08:32:35;5.90;99.90
20654;DHT22;21083;50.898;4.902;2023-12-20T08:35:03;5.90;99.90
20654;DHT22;21083;50.898;4.902;2023-12-20T08:37:31;5.90;99.90
20654;DHT22;21083;50.898;4.902;2023-12-20T08:40:00;5.90;99.90
20654;DHT22;21083;50.898;4.902;2023-12-20T08:42:26;5.90;99.90
20654;DHT22;21083;50.898;4.902;2023-12-20T08:44:57;6.00;99.90
20654;DHT22;21083;50.898;4.902;2023-12-20T08:47:24;6.00;99.90
20654;DHT22;21083;50.898;4.902;2023-12-20T08:49:52;6.00;99.90
20654;DHT22;21083;50.898;4.902;2023-12-20T08:52:22;6.00;99.90
20654;DHT22;21083;50.898;4.902;2023-12-20T08:54:49;6.10;99.90
20654;DHT22;21083;50.898;4.902;2023-12-20T08:57:19;6.10;99.90
20654;DHT22;21083;50.898;4.902;2023-12-20T08:59:47;6.20;99.90
20654;DHT22;21083;50.898;4.902;2023-12-20T09:02:14;6.30;99.90
20654;DHT22;21083;50.898;4.902;2023-12-20T09:04:41;6.30;99.90
20654;DHT22;21083;50.898;4.902;2023-12-20T09:07:21;6.30;99.90
20654;DHT22;21083;50.898;4.902;2023-12-20T09:09:48;6.20;99.90
20654;DHT22;21083;50.898;4.902;2023-12-20T09:12:15;6.30;99.90
20654;DHT22;21083;50.898;4.902;2023-12-20T09:14:43;6.30;99.90
20654;DHT22;21083;50.898;4.902;2023-12-20T09:17:10;6.40;99.90
20654;DHT22;21083;50.898;4.902;2023-12-20T09:19:38;6.50;99.90
20654;DHT22;21083;50.898;4.902;2023-12-20T09:22:05;6.50;99.90
20654;DHT22;21083;50.898;4.902;2023-12-20T09:24:32;6.50;99.90
20654;DHT22;21083;50.898;4.902;2023-12-20T09:26:59;6.40;99.90
20654;DHT22;21083;50.898;4.902;2023-12-20T09:29:26;6.50;99.90
20654;DHT22;21083;50.898;4.902;2023-12-20T09:31:54;6.50;99.90
20654;DHT22;21083;50.898;4.902;2023-12-20T09:34:21;6.50;99.90
20654;DHT22;21083;50.898;4.902;2023-12-20T09:36:48;6.50;99.90
20654;DHT22;21083;50.898;4.902;2023-12-20T09:39:16;6.60;99.90
20654;DHT22;21083;50.898;4.902;2023-12-20T09:41:45;6.60;99.90
20654;DHT22;21083;50.898;4.902;2023-12-20T09:44:16;6.60;99.90
20654;DHT22;21083;50.898;4.902;2023-12-20T09:46:44;6.60;99.90
20654;DHT22;21083;50.898;4.902;2023-12-20T09:49:13;6.90;99.90
20654;DHT22;21083;50.898;4.902;2023-12-20T09:51:41;6.80;99.90
20654;DHT22;21083;50.898;4.902;2023-12-20T09:54:08;6.80;99.90
20654;DHT22;21083;50.898;4.902;2023-12-20T09:56:37;6.90;99.90
20654;DHT22;21083;50.898;4.902;2023-12-20T09:59:04;6.90;99.90
20654;DHT22;21083;50.898;4.902;2023-12-20T10:01:31;7.00;99.90
20654;DHT22;21083;50.898;4.902;2023-12-20T10:04:00;7.10;99.90
20654;DHT22;21083;50.898;4.902;2023-12-20T10:06:29;7.20;99.90
20654;DHT22;21083;50.898;4.902;2023-12-20T10:08:56;7.30;99.90
20654;DHT22;21083;50.898;4.902;2023-12-20T10:11:23;7.40;99.90
20654;DHT22;21083;50.898;4.902;2023-12-20T10:13:51;7.40;99.90
20654;DHT22;21083;50.898;4.902;2023-12-20T10:16:18;7.40;99.90
20654;DHT22;21083;50.898;4.902;2023-12-20T10:18:45;7.40;99.90
20654;DHT22;21083;50.898;4.902;2023-12-20T10:21:12;7.30;99.90
20654;DHT22;21083;50.898;4.902;2023-12-20T10:23:44;7.30;99.90
20654;DHT22;21083;50.898;4.902;2023-12-20T10:26:19;7.40;99.90
20654;DHT22;21083;50.898;4.902;2023-12-20T10:28:46;7.30;99.90
20654;DHT22;21083;50.898;4.902;2023-12-20T10:31:27;7.40;99.90
20654;DHT22;21083;50.898;4.902;2023-12-20T10:33:56;7.40;99.90
20654;DHT22;21083;50.898;4.902;2023-12-20T10:36:23;7.40;99.90
20654;DHT22;21083;50.898;4.902;2023-12-20T10:38:54;7.60;99.90
20654;DHT22;21083;50.898;4.902;2023-12-20T10:41:25;7.60;99.90
20654;DHT22;21083;50.898;4.902;2023-12-20T10:43:57;7.50;99.90
20654;DHT22;21083;50.898;4.902;2023-12-20T10:46:26;7.40;99.90
20654;DHT22;21083;50.898;4.902;2023-12-20T10:48:55;7.50;99.90
20654;DHT22;21083;50.898;4.902;2023-12-20T10:51:23;7.60;99.90
20654;DHT22;21083;50.898;4.902;2023-12-20T10:53:54;7.50;99.90
20654;DHT22;21083;50.898;4.902;2023-12-20T10:56:23;7.50;99.90
20654;DHT22;21083;50.898;4.902;2023-12-20T10:58:50;7.50;99.90
20654;DHT22;21083;50.898;4.902;2023-12-20T11:01:18;7.60;99.90
20654;DHT22;21083;50.898;4.902;2023-12-20T11:03:49;7.60;99.90
20654;DHT22;21083;50.898;4.902;2023-12-20T11:06:27;7.60;99.90
20654;DHT22;21083;50.898;4.902;2023-12-20T11:09:04;7.70;99.90
20654;DHT22;21083;50.898;4.902;2023-12-20T11:11:39;7.70;99.90
20654;DHT22;21083;50.898;4.902;2023-12-20T11:14:14;7.60;99.90
20654;DHT22;21083;50.898;4.902;2023-12-20T11:16:42;7.70;99.90
20654;DHT22;21083;50.898;4.902;2023-12-20T11:19:11;7.60;99.90
20654;DHT22;21083;50.898;4.902;2023-12-20T11:21:40;7.50;99.90
20654;DHT22;21083;50.898;4.902;2023-12-20T11:24:09;7.60;99.90
20654;DHT22;21083;50.898;4.902;2023-12-20T11:26:36;7.70;99.90
20654;DHT22;21083;50.898;4.902;2023-12-20T11:29:31;7.80;99.90
20654;DHT22;21083;50.898;4.902;2023-12-20T11:32:00;7.80;99.90
20654;DHT22;21083;50.898;4.902;2023-12-20T11:34:27;7.80;99.90
20654;DHT22;21083;50.898;4.902;2023-12-20T11:36:59;7.80;99.90
20654;DHT22;21083;50.898;4.902;2023-12-20T11:39:30;7.90;99.90
20654;DHT22;21083;50.898;4.902;2023-12-20T11:42:04;7.80;99.90
20654;DHT22;21083;50.898;4.902;2023-12-20T11:44:33;7.90;99.90
20654;DHT22;21083;50.898;4.902;2023-12-20T11:47:01;7.90;99.90
20654;DHT22;21083;50.898;4.902;2023-12-20T11:49:28;7.90;99.90
20654;DHT22;21083;50.898;4.902;2023-12-20T11:51:56;7.90;99.90
20654;DHT22;21083;50.898;4.902;2023-12-20T11:54:24;7.90;99.90
20654;DHT22;21083;50.898;4.902;2023-12-20T11:56:53;7.90;99.90
20654;DHT22;21083;50.898;4.902;2023-12-20T11:59:20;7.90;99.90
20654;DHT22;21083;50.898;4.902;2023-12-20T12:01:50;8.10;99.90
20654;DHT22;21083;50.898;4.902;2023-12-20T12:04:17;8.10;99.90
20654;DHT22;21083;50.898;4.902;2023-12-20T12:06:44;8.10;99.90
20654;DHT22;21083;50.898;4.902;2023-12-20T12:09:13;8.10;99.90
20654;DHT22;21083;50.898;4.902;2023-12-20T12:11:42;8.10;99.90
20654;DHT22;21083;50.898;4.902;2023-12-20T12:14:11;8.10;99.90
20654;DHT22;21083;50.898;4.902;2023-12-20T12:16:38;8.10;99.90
20654;DHT22;21083;50.898;4.902;2023-12-20T12:19:05;8.10;99.90
20654;DHT22;21083;50.898;4.902;2023-12-20T12:21:32;8.10;99.90
20654;DHT22;21083;50.898;4.902;2023-12-20T12:24:09;8.10;99.90
20654;DHT22;21083;50.898;4.902;2023-12-20T12:26:38;8.10;99.90
20654;DHT22;21083;50.898;4.902;2023-12-20T12:29:07;8.10;99.90
20654;DHT22;21083;50.898;4.902;2023-12-20T12:31:36;8.10;99.90
20654;DHT22;21083;50.898;4.902;2023-12-20T12:34:03;8.10;99.90
20654;DHT22;21083;50.898;4.902;2023-12-20T12:36:30;8.10;99.90
20654;DHT22;21083;50.898;4.902;2023-12-20T12:38:57;8.00;99.90
20654;DHT22;21083;50.898;4.902;2023-12-20T12:41:25;8.00;99.90
20654;DHT22;21083;50.898;4.902;2023-12-20T12:43:52;8.10;99.90
20654;DHT22;21083;50.898;4.902;2023-12-20T12:46:18;8.00;99.90
20654;DHT22;21083;50.898;4.902;2023-12-20T12:48:47;8.00;99.90
20654;DHT22;21083;50.898;4.902;2023-12-20T12:51:16;8.10;99.90
20654;DHT22;21083;50.898;4.902;2023-12-20T12:53:42;8.00;99.90
20654;DHT22;21083;50.898;4.902;2023-12-20T12:56:10;8.00;99.90
20654;DHT22;21083;50.898;4.902;2023-12-20T12:58:37;8.10;99.90
20654;DHT22;21083;50.898;4.902;2023-12-20T13:01:04;8.00;99.90
20654;DHT22;21083;50.898;4.902;2023-12-20T13:03:31;8.10;99.90
20654;DHT22;21083;50.898;4.902;2023-12-20T13:06:01;8.10;99.90
20654;DHT22;21083;50.898;4.902;2023-12-20T13:08:29;8.20;99.90
20654;DHT22;21083;50.898;4.902;2023-12-20T13:10:57;8.20;99.90
20654;DHT22;21083;50.898;4.902;2023-12-20T13:13:26;8.40;99.90
20654;DHT22;21083;50.898;4.902;2023-12-20T13:15:54;8.20;99.90
20654;DHT22;21083;50.898;4.902;2023-12-20T13:18:21;8.20;99.90
20654;DHT22;21083;50.898;4.902;2023-12-20T13:20:48;8.20;99.90
20654;DHT22;21083;50.898;4.902;2023-12-20T13:23:16;8.20;99.90
20654;DHT22;21083;50.898;4.902;2023-12-20T13:25:45;8.30;99.90
20654;DHT22;21083;50.898;4.902;2023-12-20T13:28:12;8.20;99.90
20654;DHT22;21083;50.898;4.902;2023-12-20T13:30:39;8.20;99.90
20654;DHT22;21083;50.898;4.902;2023-12-20T13:33:08;8.20;99.90
20654;DHT22;21083;50.898;4.902;2023-12-20T13:35:35;8.30;99.90
20654;DHT22;21083;50.898;4.902;2023-12-20T13:38:03;8.20;99.90
20654;DHT22;21083;50.898;4.902;2023-12-20T13:40:32;8.20;99.90
20654;DHT22;21083;50.898;4.902;2023-12-20T13:42:59;8.20;99.90
20654;DHT22;21083;50.898;4.902;2023-12-20T13:45:28;8.20;99.90
20654;DHT22;21083;50.898;4.902;2023-12-20T13:47:55;8.30;99.90
20654;DHT22;21083;50.898;4.902;2023-12-20T13:50:22;8.30;99.90
20654;DHT22;21083;50.898;4.902;2023-12-20T13:52:49;8.30;99.90
20654;DHT22;21083;50.898;4.902;2023-12-20T13:55:16;8.30;99.90
20654;DHT22;21083;50.898;4.902;2023-12-20T13:57:48;8.30;99.90
20654;DHT22;21083;50.898;4.902;2023-12-20T14:00:16;8.20;99.90
20654;DHT22;21083;50.898;4.902;2023-12-20T14:02:44;8.20;99.90
20654;DHT22;21083;50.898;4.902;2023-12-20T14:05:12;8.20;99.90
20654;DHT22;21083;50.898;4.902;2023-12-20T14:07:40;8.20;99.90
20654;DHT22;21083;50.898;4.902;2023-12-20T14:10:11;8.20;99.90
20654;DHT22;21083;50.898;4.902;2023-12-20T14:12:38;8.20;99.90
20654;DHT22;21083;50.898;4.902;2023-12-20T14:15:09;8.30;99.90
20654;DHT22;21083;50.898;4.902;2023-12-20T14:17:36;8.30;99.90
20654;DHT22;21083;50.898;4.902;2023-12-20T14:20:05;8.30;99.90
20654;DHT22;21083;50.898;4.902;2023-12-20T14:22:33;8.30;99.90
20654;DHT22;21083;50.898;4.902;2023-12-20T14:25:01;8.30;99.90
20654;DHT22;21083;50.898;4.902;2023-12-20T14:27:29;8.20;99.90
20654;DHT22;21083;50.898;4.902;2023-12-20T14:29:56;8.20;99.90
20654;DHT22;21083;50.898;4.902;2023-12-20T14:32:25;8.30;99.90
20654;DHT22;21083;50.898;4.902;2023-12-20T14:34:53;8.20;99.90
20654;DHT22;21083;50.898;4.902;2023-12-20T14:37:21;8.20;99.90
20654;DHT22;21083;50.898;4.902;2023-12-20T14:39:49;8.20;99.90
20654;DHT22;21083;50.898;4.902;2023-12-20T14:42:16;8.20;99.90
20654;DHT22;21083;50.898;4.902;2023-12-20T14:44:43;8.40;99.90
20654;DHT22;21083;50.898;4.902;2023-12-20T14:47:10;8.40;99.90
20654;DHT22;21083;50.898;4.902;2023-12-20T14:49:40;8.40;99.90
20654;DHT22;21083;50.898;4.902;2023-12-20T14:52:08;8.40;99.90
20654;DHT22;21083;50.898;4.902;2023-12-20T14:54:36;8.50;99.90
20654;DHT22;21083;50.898;4.902;2023-12-20T14:57:04;8.50;99.90
20654;DHT22;21083;50.898;4.902;2023-12-20T14:59:31;8.50;99.90
20654;DHT22;21083;50.898;4.902;2023-12-20T15:01:58;8.40;99.90
20654;DHT22;21083;50.898;4.902;2023-12-20T15:04:26;8.60;99.90
20654;DHT22;21083;50.898;4.902;2023-12-20T15:06:55;8.60;99.90
20654;DHT22;21083;50.898;4.902;2023-12-20T15:09:23;8.60;99.90
20654;DHT22;21083;50.898;4.902;2023-12-20T15:11:51;8.60;99.90
20654;DHT22;21083;50.898;4.902;2023-12-20T15:14:18;8.60;99.90
20654;DHT22;21083;50.898;4.902;2023-12-20T15:16:46;8.60;99.90
20654;DHT22;21083;50.898;4.902;2023-12-20T15:19:14;8.60;99.90
20654;DHT22;21083;50.898;4.902;2023-12-20T15:21:42;8.60;99.90
20654;DHT22;21083;50.898;4.902;2023-12-20T15:24:10;8.60;99.90
20654;DHT22;21083;50.898;4.902;2023-12-20T15:26:41;8.60;99.90
20654;DHT22;21083;50.898;4.902;2023-12-20T15:29:10;8.70;99.90
20654;DHT22;21083;50.898;4.902;2023-12-20T15:31:42;8.80;99.90
20654;DHT22;21083;50.898;4.902;2023-12-20T15:34:10;8.80;99.90
20654;DHT22;21083;50.898;4.902;2023-12-20T15:36:37;8.80;99.90
20654;DHT22;21083;50.898;4.902;2023-12-20T15:39:05;8.80;99.90
20654;DHT22;21083;50.898;4.902;2023-12-20T15:41:35;8.80;99.90
20654;DHT22;21083;50.898;4.902;2023-12-20T15:44:03;8.80;99.90
20654;DHT22;21083;50.898;4.902;2023-12-20T15:46:30;8.80;99.90
20654;DHT22;21083;50.898;4.902;2023-12-20T15:48:59;9.00;99.90